Terminal Aerodrome Forecast
Issued by NWS

Home | Current Version | Previous Version | Text Only | Print | Product List | Glossary On
Versions: 1 2 3 4 5 6 7 8 9 10 11 12 13 14 15 16 17
000
FTUS41 KBGM 221700
TAFRME
TAF
KRME 221740Z 2218/2318 09008KT P6SM BKN025 BKN100
      TEMPO 2218/2222 SCT025 SCT100
     FM222200 10008KT P6SM BKN040 OVC100
      TEMPO 2303/2307 4SM -FZDZSN OVC015
     FM230700 11008KT 5SM -RA BKN015 OVC040 PROB30 2307/2309 -FZRA
     FM231500 12012KT P6SM -SHRA OVC015=

USA.gov is the U.S. government's official web portal to all federal, state and local government web resources and services.